createdAt,value
2017-09-26T00:01:47.098Z,11.10
2017-09-26T00:04:14.647Z,12.70
2017-09-26T00:06:42.959Z,13.43
2017-09-26T00:09:11.074Z,13.13
2017-09-26T00:11:38.638Z,12.57
2017-09-26T00:14:07.692Z,13.65
2017-09-26T00:16:35.237Z,13.70
2017-09-26T00:19:02.800Z,12.63
2017-09-26T00:21:30.336Z,12.37
2017-09-26T00:23:58.663Z,14.32
2017-09-26T00:26:26.206Z,11.20
2017-09-26T00:28:53.763Z,10.77
2017-09-26T00:31:21.326Z,15.77
2017-09-26T00:33:48.880Z,14.83
2017-09-26T00:36:16.418Z,11.50
2017-09-26T00:38:43.978Z,12.13
2017-09-26T00:41:11.518Z,13.90
2017-09-26T00:43:39.822Z,17.73
2017-09-26T00:46:07.378Z,13.38
2017-09-26T00:48:34.944Z,13.43
2017-09-26T00:51:02.494Z,11.30
2017-09-26T00:53:30.066Z,12.00
2017-09-26T00:55:57.616Z,12.40
2017-09-26T00:58:25.181Z,10.87
2017-09-26T01:00:52.700Z,12.50
2017-09-26T01:16:42.752Z,13.63
2017-09-26T01:19:10.493Z,9.80
2017-09-26T01:21:38.008Z,10.90
2017-09-26T01:24:06.321Z,11.47
2017-09-26T01:26:33.858Z,12.20
2017-09-26T01:29:01.400Z,14.23
2017-09-26T01:31:29.700Z,14.80
2017-09-26T01:33:57.247Z,11.70
2017-09-26T01:36:25.543Z,11.93
2017-09-26T01:38:53.072Z,12.97
2017-09-26T01:41:20.627Z,12.63
2017-09-26T01:43:48.936Z,12.43
2017-09-26T01:46:16.478Z,13.57
2017-09-26T01:48:44.771Z,12.95
2017-09-26T01:51:12.315Z,14.43
2017-09-26T01:53:40.618Z,13.17
2017-09-26T01:56:09.059Z,12.83
2017-09-26T01:58:36.592Z,14.05
2017-09-26T02:01:04.139Z,14.63
2017-09-26T02:03:31.676Z,12.90
2017-09-26T02:05:59.225Z,16.20
2017-09-26T02:08:26.776Z,12.50
2017-09-26T02:10:54.321Z,13.07
2017-09-26T02:13:22.613Z,14.63
2017-09-26T02:15:50.140Z,12.67
2017-09-26T02:18:17.673Z,12.23
2017-09-26T02:20:45.217Z,12.10
2017-09-26T02:23:12.749Z,12.73
2017-09-26T02:25:41.053Z,12.57
2017-09-26T02:28:08.604Z,13.73
2017-09-26T02:30:36.136Z,14.70
2017-09-26T02:33:04.481Z,11.27
2017-09-26T02:35:32.005Z,12.10
2017-09-26T02:37:59.542Z,12.23
2017-09-26T02:40:27.069Z,11.03
2017-09-26T02:42:56.208Z,11.88
2017-09-26T02:45:23.746Z,11.73
2017-09-26T02:47:52.050Z,11.83
2017-09-26T02:50:19.605Z,11.73
2017-09-26T02:52:47.157Z,11.90
2017-09-26T02:55:14.685Z,14.50
2017-09-26T02:57:42.234Z,13.37
2017-09-26T03:00:09.779Z,13.57
2017-09-26T03:02:37.325Z,11.85
2017-09-26T03:05:04.870Z,15.77
2017-09-26T03:07:32.449Z,12.30
2017-09-26T03:09:59.976Z,12.33
2017-09-26T03:12:27.521Z,12.33
2017-09-26T03:14:55.061Z,13.50
2017-09-26T03:17:22.609Z,14.20
2017-09-26T03:19:50.154Z,11.80
2017-09-26T03:22:17.705Z,11.70
2017-09-26T03:24:45.248Z,12.30
2017-09-26T03:27:12.810Z,13.02
2017-09-26T03:29:40.342Z,14.93
2017-09-26T03:32:07.879Z,18.67
2017-09-26T03:34:36.180Z,15.93
2017-09-26T03:37:03.729Z,13.93
2017-09-26T03:39:32.032Z,11.40
2017-09-26T03:41:59.561Z,14.03
2017-09-26T03:44:27.879Z,11.90
2017-09-26T03:46:55.406Z,15.60
2017-09-26T03:49:22.973Z,12.68
2017-09-26T03:51:50.515Z,13.10
2017-09-26T03:54:18.839Z,11.67
2017-09-26T03:56:46.381Z,11.80
2017-09-26T03:59:13.912Z,11.83
2017-09-26T04:01:42.210Z,11.90
2017-09-26T04:04:09.761Z,13.17
2017-09-26T04:06:37.290Z,17.00
2017-09-26T04:09:05.634Z,14.20
2017-09-26T04:11:33.164Z,12.20
2017-09-26T04:14:00.721Z,16.90
2017-09-26T04:16:28.293Z,12.60
2017-09-26T04:18:55.841Z,12.40
2017-09-26T04:21:23.382Z,12.00
2017-09-26T04:23:51.708Z,21.33
2017-09-26T04:26:19.241Z,12.73
2017-09-26T04:28:46.778Z,12.97
2017-09-26T04:31:15.086Z,15.70
2017-09-26T04:33:42.616Z,12.60
2017-09-26T04:36:10.921Z,13.13
2017-09-26T04:38:38.457Z,16.80
2017-09-26T04:41:06.773Z,13.80
2017-09-26T04:43:34.292Z,17.40
2017-09-26T04:46:02.610Z,15.67
2017-09-26T04:48:30.165Z,16.40
2017-09-26T04:50:57.708Z,12.90
2017-09-26T04:53:25.234Z,15.70
2017-09-26T04:55:53.538Z,13.38
2017-09-26T04:58:21.082Z,17.30
2017-09-26T05:00:48.634Z,16.40
2017-09-26T05:03:16.892Z,13.83
2017-09-26T05:05:44.380Z,15.87
2017-09-26T05:08:11.909Z,25.20
2017-09-26T05:10:39.422Z,17.27
2017-09-26T05:13:06.923Z,18.10
2017-09-26T05:15:34.428Z,15.43
2017-09-26T05:18:01.903Z,13.37
2017-09-26T05:20:29.381Z,14.70
2017-09-26T05:22:56.877Z,14.00
2017-09-26T05:25:24.366Z,14.83
2017-09-26T05:27:51.875Z,17.03
2017-09-26T05:30:19.367Z,15.03
2017-09-26T05:32:46.859Z,14.33
2017-09-26T05:35:14.355Z,13.60
2017-09-26T05:37:42.633Z,15.57
2017-09-26T05:40:10.115Z,16.23
2017-09-26T05:42:47.615Z,14.80
2017-09-26T05:45:15.113Z,12.53
2017-09-26T05:47:42.628Z,13.70
2017-09-26T05:50:10.108Z,14.73
2017-09-26T05:52:37.594Z,14.33
2017-09-26T05:55:05.090Z,18.43
2017-09-26T05:57:32.588Z,17.90
2017-09-26T06:00:00.065Z,18.40
2017-09-26T06:02:27.576Z,17.90
2017-09-26T06:04:55.062Z,16.63
2017-09-26T06:07:22.556Z,22.53
2017-09-26T06:09:50.060Z,18.03
2017-09-26T06:12:17.557Z,15.40
2017-09-26T06:14:48.578Z,22.93
2017-09-26T06:17:16.098Z,15.90
2017-09-26T06:19:43.589Z,20.90
2017-09-26T06:22:11.087Z,16.73
2017-09-26T06:24:51.437Z,18.23
2017-09-26T06:27:18.932Z,16.67
2017-09-26T06:29:46.433Z,22.23
2017-09-26T06:32:13.924Z,20.10
2017-09-26T06:34:41.432Z,17.98
2017-09-26T06:37:08.930Z,18.47
2017-09-26T06:39:36.419Z,22.47
2017-09-26T06:42:04.675Z,22.97
2017-09-26T06:44:32.177Z,37.77
2017-09-26T06:46:59.674Z,31.77
2017-09-26T06:49:27.958Z,21.10
2017-09-26T06:51:56.200Z,23.20
2017-09-26T06:54:30.272Z,29.63
2017-09-26T06:56:58.514Z,20.90
2017-09-26T06:59:26.017Z,38.03
2017-09-26T07:01:53.563Z,33.80
2017-09-26T07:04:21.825Z,24.73
2017-09-26T07:06:49.307Z,28.60
2017-09-26T07:09:16.793Z,22.30
2017-09-26T07:11:44.274Z,24.60
2017-09-26T07:14:11.769Z,23.60
2017-09-26T07:16:39.997Z,25.40
2017-09-26T07:19:07.482Z,23.10
2017-09-26T07:21:34.969Z,24.50
2017-09-26T07:24:03.209Z,24.83
2017-09-26T07:26:30.707Z,26.00
2017-09-26T07:28:58.194Z,23.42
2017-09-26T07:31:25.683Z,24.93
2017-09-26T07:33:54.677Z,26.00
2017-09-26T07:36:22.166Z,31.48
2017-09-26T07:38:51.359Z,27.33
2017-09-26T07:41:19.608Z,30.20
2017-09-26T07:43:47.087Z,29.70
2017-09-26T07:46:15.365Z,43.53
2017-09-26T07:48:43.624Z,31.10
2017-09-26T07:51:11.893Z,35.65
2017-09-26T07:53:39.387Z,33.30
2017-09-26T07:56:06.877Z,32.97
2017-09-26T07:58:34.366Z,36.43
2017-09-26T08:01:02.039Z,41.50
2017-09-26T08:03:30.057Z,36.90
2017-09-26T08:05:58.043Z,38.13
2017-09-26T08:08:26.110Z,38.53
2017-09-26T08:10:53.584Z,41.17
2017-09-26T08:13:21.074Z,38.60
2017-09-26T08:15:48.563Z,36.00
2017-09-26T08:18:16.054Z,44.77
2017-09-26T08:20:43.592Z,39.00
2017-09-26T08:23:11.863Z,44.93
2017-09-26T08:25:39.341Z,45.53
2017-09-26T08:28:06.850Z,37.40
2017-09-26T08:30:34.343Z,34.80
2017-09-26T08:33:01.847Z,36.60
2017-09-26T08:35:29.321Z,36.70
2017-09-26T08:37:57.572Z,35.53
2017-09-26T08:40:25.077Z,41.20
2017-09-26T08:42:52.570Z,36.63
2017-09-26T08:45:23.902Z,33.73
2017-09-26T08:47:51.424Z,37.17
2017-09-26T08:50:19.690Z,32.40
2017-09-26T08:52:47.192Z,34.70
2017-09-26T08:55:14.684Z,32.60
2017-09-26T08:57:42.188Z,37.90
2017-09-26T09:00:09.687Z,35.50
2017-09-26T09:02:37.182Z,38.60
2017-09-26T09:05:04.673Z,37.60
2017-09-26T09:07:32.166Z,42.50
2017-09-26T09:09:59.663Z,35.37
2017-09-26T09:12:27.909Z,35.47
2017-09-26T09:14:55.414Z,35.20
2017-09-26T09:17:22.915Z,35.67
2017-09-26T09:19:53.960Z,36.67
2017-09-26T09:22:21.441Z,32.17
2017-09-26T09:24:48.952Z,34.87
2017-09-26T09:27:16.426Z,32.20
2017-09-26T09:29:43.932Z,32.07
2017-09-26T09:32:12.181Z,33.10
2017-09-26T09:34:39.677Z,34.53
2017-09-26T09:37:07.926Z,34.07
2017-09-26T09:39:35.438Z,30.23
2017-09-26T09:42:02.926Z,35.78
2017-09-26T09:44:30.440Z,31.27
2017-09-26T09:46:57.937Z,32.27
2017-09-26T09:49:25.422Z,32.20
2017-09-26T09:51:53.669Z,31.03
2017-09-26T09:54:21.176Z,32.50
2017-09-26T09:56:49.438Z,29.33
2017-09-26T09:59:17.727Z,29.57
2017-09-26T10:01:45.969Z,32.70
2017-09-26T10:04:14.224Z,25.00
2017-09-26T10:06:41.707Z,31.87
2017-09-26T10:09:09.213Z,26.87
2017-09-26T10:11:36.696Z,31.27
2017-09-26T10:14:04.190Z,27.37
2017-09-26T10:16:31.687Z,28.20
2017-09-26T10:18:59.179Z,25.73
2017-09-26T10:21:26.705Z,24.20
2017-09-26T10:23:54.199Z,26.83
2017-09-26T10:26:21.689Z,25.43
2017-09-26T10:28:49.934Z,28.50
2017-09-26T10:31:17.434Z,26.33
2017-09-26T10:33:45.707Z,23.03
2017-09-26T10:36:13.973Z,26.07
2017-09-26T10:38:41.463Z,23.60
2017-09-26T10:41:08.968Z,21.50
2017-09-26T10:43:36.467Z,30.07
2017-09-26T10:46:04.728Z,23.13
2017-09-26T10:48:32.988Z,21.83
2017-09-26T10:51:00.481Z,20.73
2017-09-26T10:53:28.937Z,20.30
2017-09-26T10:55:56.457Z,21.30
2017-09-26T10:58:23.943Z,18.33
2017-09-26T11:00:51.422Z,17.30
2017-09-26T11:03:19.680Z,15.37
2017-09-26T11:05:47.172Z,16.57
2017-09-26T11:08:22.729Z,13.17
2017-09-26T11:10:50.212Z,13.40
2017-09-26T11:13:17.714Z,19.27
2017-09-26T11:15:45.965Z,12.80
2017-09-26T11:18:13.464Z,13.53
2017-09-26T11:20:40.948Z,13.60
2017-09-26T11:23:08.473Z,13.23
2017-09-26T11:25:36.718Z,9.63
2017-09-26T11:28:05.704Z,10.80
2017-09-26T11:30:33.197Z,11.73
2017-09-26T11:33:01.459Z,10.40
2017-09-26T11:35:28.954Z,11.23
2017-09-26T11:37:56.440Z,11.93
2017-09-26T11:40:23.913Z,10.23
2017-09-26T11:42:52.178Z,11.60
2017-09-26T11:45:19.666Z,10.83
2017-09-26T11:47:47.928Z,12.85
2017-09-26T11:50:15.397Z,9.80
2017-09-26T11:52:42.904Z,11.77
2017-09-26T11:55:10.382Z,18.70
2017-09-26T11:57:37.882Z,26.80
2017-09-26T12:00:06.146Z,27.83
2017-09-26T12:02:33.637Z,22.03
2017-09-26T12:05:01.145Z,27.98
2017-09-26T12:07:28.636Z,21.10
2017-09-26T12:09:57.013Z,23.07
2017-09-26T12:12:25.277Z,21.30
2017-09-26T12:14:54.994Z,24.50
2017-09-26T12:17:23.253Z,23.13
2017-09-26T12:19:50.749Z,26.27
2017-09-26T12:22:18.236Z,23.00
2017-09-26T12:24:45.732Z,23.13
2017-09-26T12:27:13.205Z,26.13
2017-09-26T12:29:48.679Z,21.27
2017-09-26T12:32:16.178Z,21.73
2017-09-26T12:34:43.686Z,24.63
2017-09-26T12:37:11.165Z,23.70
2017-09-26T12:39:38.675Z,23.23
2017-09-26T12:42:06.166Z,22.57
2017-09-26T12:44:33.692Z,23.23
2017-09-26T12:47:01.173Z,22.23
2017-09-26T12:49:28.664Z,35.63
2017-09-26T12:51:56.138Z,34.13
2017-09-26T12:54:23.649Z,20.87
2017-09-26T12:56:51.906Z,15.57
2017-09-26T12:59:20.182Z,18.15
2017-09-26T13:01:48.420Z,18.67
2017-09-26T13:04:15.897Z,25.03
2017-09-26T13:06:43.382Z,25.70
2017-09-26T13:09:11.629Z,28.10
2017-09-26T13:11:39.889Z,21.20
2017-09-26T13:14:07.378Z,15.33
2017-09-26T13:16:34.883Z,19.50
2017-09-26T13:19:02.358Z,19.03
2017-09-26T13:21:29.858Z,21.48
2017-09-26T13:23:58.105Z,26.47
2017-09-26T13:26:25.590Z,14.77
2017-09-26T13:28:53.837Z,12.80
2017-09-26T13:31:21.336Z,14.70
2017-09-26T13:33:49.601Z,14.60
2017-09-26T13:36:17.098Z,20.53
2017-09-26T13:38:44.584Z,13.37
2017-09-26T13:41:12.080Z,13.63
2017-09-26T13:43:40.326Z,14.53
2017-09-26T13:46:07.816Z,14.20
2017-09-26T13:48:36.071Z,13.30
2017-09-26T13:51:03.585Z,14.87
2017-09-26T13:53:31.069Z,12.40
2017-09-26T13:55:58.553Z,13.57
2017-09-26T13:58:26.041Z,11.03
2017-09-26T14:00:53.531Z,11.23
2017-09-26T14:03:21.030Z,16.20
2017-09-26T14:05:49.285Z,15.23
2017-09-26T14:08:16.782Z,15.03
2017-09-26T14:10:45.032Z,17.70
2017-09-26T14:13:12.601Z,11.17
2017-09-26T14:15:40.864Z,11.20
2017-09-26T14:18:08.373Z,10.10
2017-09-26T14:20:35.848Z,9.00
2017-09-26T14:23:03.363Z,9.33
2017-09-26T14:25:31.606Z,9.63
2017-09-26T14:27:59.116Z,10.48
2017-09-26T14:30:26.597Z,8.97
2017-09-26T14:32:54.095Z,6.77
2017-09-26T14:35:21.701Z,6.67
2017-09-26T14:37:49.199Z,6.93
2017-09-26T14:40:16.672Z,8.65
2017-09-26T14:42:44.918Z,10.40
2017-09-26T14:45:12.421Z,12.00
2017-09-26T14:47:40.670Z,10.67
2017-09-26T14:50:08.167Z,9.30
2017-09-26T14:52:35.638Z,9.50
2017-09-26T14:55:03.134Z,9.10
2017-09-26T14:57:30.625Z,9.77
2017-09-26T14:59:58.882Z,10.27
2017-09-26T15:02:26.361Z,12.17
2017-09-26T15:04:54.645Z,13.30
2017-09-26T15:07:22.124Z,10.05
2017-09-26T15:09:49.624Z,13.43
2017-09-26T15:12:17.110Z,13.60
2017-09-26T15:14:45.381Z,10.20
2017-09-26T15:17:13.656Z,10.07
2017-09-26T15:19:41.913Z,12.27
2017-09-26T15:22:09.398Z,13.43
2017-09-26T15:24:37.653Z,11.53
2017-09-26T15:27:05.151Z,18.40
2017-09-26T15:29:32.630Z,18.93
2017-09-26T15:32:00.131Z,23.00
2017-09-26T15:34:27.621Z,23.45
2017-09-26T15:36:55.100Z,25.53
2017-09-26T15:39:22.591Z,19.17
2017-09-26T15:41:50.085Z,13.40
2017-09-26T15:44:18.342Z,14.10
2017-09-26T15:46:45.843Z,15.43
2017-09-26T15:49:13.324Z,12.00
2017-09-26T15:51:40.828Z,14.93
2017-09-26T15:54:09.092Z,14.50
2017-09-26T15:56:36.590Z,17.40
2017-09-26T15:59:04.326Z,15.47
2017-09-26T16:01:32.596Z,14.63
2017-09-26T16:04:00.833Z,14.10
2017-09-26T16:06:28.333Z,20.10
2017-09-26T16:08:56.607Z,19.77
2017-09-26T16:11:24.879Z,16.43
2017-09-26T16:13:52.374Z,19.63
2017-09-26T16:16:19.874Z,15.93
2017-09-26T16:18:47.370Z,15.93
2017-09-26T16:21:14.875Z,14.00
2017-09-26T16:23:42.389Z,14.37
2017-09-26T16:26:10.699Z,14.03
2017-09-26T16:28:38.220Z,21.70
2017-09-26T16:31:06.475Z,21.00
2017-09-26T16:33:34.783Z,15.50
2017-09-26T16:36:03.024Z,23.73
2017-09-26T16:38:30.504Z,28.73
2017-09-26T16:40:58.764Z,32.35
2017-09-26T16:43:26.251Z,33.53
2017-09-26T16:45:53.737Z,45.23
2017-09-26T16:48:21.243Z,30.25
2017-09-26T16:50:48.740Z,28.80
2017-09-26T16:53:16.231Z,34.57
2017-09-26T16:55:43.723Z,33.60
2017-09-26T16:58:11.974Z,34.50
2017-09-26T17:00:39.457Z,32.33
2017-09-26T17:03:07.769Z,35.92
2017-09-26T17:05:35.258Z,38.17
2017-09-26T17:08:02.736Z,41.00
2017-09-26T17:10:30.993Z,33.20
2017-09-26T17:12:58.469Z,31.83
2017-09-26T17:15:29.742Z,36.80
2017-09-26T17:17:58.017Z,34.40
2017-09-26T17:20:26.293Z,34.43
2017-09-26T17:22:54.559Z,33.57
2017-09-26T17:25:22.821Z,29.17
2017-09-26T17:27:50.293Z,34.10
2017-09-26T17:30:18.547Z,26.23
2017-09-26T17:32:46.021Z,28.70
2017-09-26T17:35:14.290Z,30.97
2017-09-26T17:37:41.784Z,33.90
2017-09-26T17:40:09.281Z,34.10
2017-09-26T17:42:36.777Z,41.80
2017-09-26T17:45:05.045Z,43.90
2017-09-26T17:47:32.545Z,34.53
2017-09-26T17:50:00.037Z,31.17
2017-09-26T17:52:27.530Z,33.90
2017-09-26T17:54:55.773Z,35.40
2017-09-26T17:57:23.282Z,25.50
2017-09-26T17:59:50.814Z,26.10
2017-09-26T18:02:18.304Z,24.37
2017-09-26T18:04:45.784Z,27.00
2017-09-26T18:07:13.273Z,26.50
2017-09-26T18:09:40.799Z,24.87
2017-09-26T18:12:08.289Z,26.20
2017-09-26T18:14:35.765Z,30.87
2017-09-26T18:17:04.016Z,28.60
2017-09-26T18:19:32.974Z,26.33
2017-09-26T18:22:00.475Z,30.77
2017-09-26T18:24:29.462Z,21.23
2017-09-26T18:26:56.944Z,18.60
2017-09-26T18:29:25.234Z,15.20
2017-09-26T18:31:53.498Z,14.13
2017-09-26T18:34:21.747Z,17.70
2017-09-26T18:36:49.331Z,26.33
2017-09-26T18:39:17.631Z,26.33
2017-09-26T18:41:45.156Z,29.40
2017-09-26T18:44:12.701Z,24.97
2017-09-26T18:46:40.180Z,21.67
2017-09-26T18:49:07.721Z,18.73
2017-09-26T18:51:35.197Z,18.73
2017-09-26T18:54:02.759Z,19.95
2017-09-26T18:56:30.291Z,18.53
2017-09-26T18:58:57.841Z,19.87
2017-09-26T19:01:25.360Z,18.60
2017-09-26T19:03:52.917Z,25.30
2017-09-26T19:06:21.216Z,19.63
2017-09-26T19:08:48.768Z,20.33
2017-09-26T19:11:16.248Z,19.80
2017-09-26T19:13:43.744Z,23.70
2017-09-26T19:16:11.357Z,22.20
2017-09-26T19:18:38.898Z,23.57
2017-09-26T19:21:06.441Z,21.73
2017-09-26T19:23:34.764Z,43.07
2017-09-26T19:26:02.244Z,39.40
2017-09-26T19:28:30.544Z,23.40
2017-09-26T19:30:58.857Z,27.67
2017-09-26T19:33:26.333Z,42.20
2017-09-26T19:35:53.881Z,30.00
2017-09-26T19:38:21.413Z,23.60
2017-09-26T19:40:49.001Z,24.37
2017-09-26T19:43:16.532Z,23.50
2017-09-26T19:45:44.832Z,17.27
2017-09-26T19:48:13.904Z,16.90
2017-09-26T19:50:42.156Z,17.37
2017-09-26T19:53:09.740Z,16.23
2017-09-26T19:55:38.046Z,15.90
2017-09-26T19:58:05.589Z,15.60
2017-09-26T20:00:33.082Z,16.40
2017-09-26T20:03:00.564Z,18.47
2017-09-26T20:05:28.062Z,16.00
2017-09-26T20:07:55.589Z,16.50
2017-09-26T20:10:24.003Z,15.47
2017-09-26T20:12:51.533Z,14.80
2017-09-26T20:15:19.814Z,16.10
2017-09-26T20:17:48.104Z,18.87
2017-09-26T20:20:16.868Z,18.13
2017-09-26T20:22:44.410Z,16.40
2017-09-26T20:25:11.952Z,16.90
2017-09-26T20:27:39.437Z,15.37
2017-09-26T20:30:06.978Z,17.17
2017-09-26T20:32:35.887Z,18.27
2017-09-26T20:35:03.370Z,16.37
2017-09-26T20:37:31.635Z,16.57
2017-09-26T20:39:59.923Z,18.00
2017-09-26T20:42:28.181Z,15.83
2017-09-26T20:44:56.430Z,17.10
2017-09-26T20:47:23.927Z,22.50
2017-09-26T20:49:52.181Z,15.73
2017-09-26T20:52:19.668Z,15.90
2017-09-26T20:54:47.912Z,15.93
2017-09-26T20:57:15.404Z,14.13
2017-09-26T20:59:42.909Z,16.17
2017-09-26T21:02:10.426Z,15.93
2017-09-26T21:04:37.918Z,13.30
2017-09-26T21:07:05.433Z,12.75
2017-09-26T21:09:33.681Z,11.37
2017-09-26T21:12:01.159Z,10.63
2017-09-26T21:14:29.419Z,13.53
2017-09-26T21:16:56.896Z,13.77
2017-09-26T21:19:25.148Z,12.90
2017-09-26T21:21:52.626Z,12.60
2017-09-26T21:24:20.878Z,12.00
2017-09-26T21:26:48.614Z,12.60
2017-09-26T21:29:16.119Z,11.70
2017-09-26T21:31:44.362Z,11.93
2017-09-26T21:34:11.853Z,12.30
2017-09-26T21:36:40.097Z,11.97
2017-09-26T21:39:07.615Z,12.10
2017-09-26T21:41:35.630Z,13.03
2017-09-26T21:44:03.125Z,13.00
2017-09-26T21:46:31.368Z,11.87
2017-09-26T21:48:58.882Z,15.77
2017-09-26T21:51:26.354Z,18.87
2017-09-26T21:53:53.857Z,17.50
2017-09-26T21:56:21.333Z,12.53
2017-09-26T21:58:49.598Z,11.57
2017-09-26T22:01:18.063Z,10.93
2017-09-26T22:03:45.575Z,12.60
2017-09-26T22:06:13.069Z,11.17
2017-09-26T22:08:40.534Z,13.00
2017-09-26T22:11:08.041Z,13.53
2017-09-26T22:13:35.538Z,13.62
2017-09-26T22:18:56.051Z,13.63
2017-09-26T22:21:24.967Z,12.93
2017-09-26T22:23:52.453Z,11.80
2017-09-26T22:26:19.957Z,12.10
2017-09-26T22:28:47.450Z,11.90
2017-09-26T22:31:15.717Z,12.77
2017-09-26T22:33:43.183Z,15.33
2017-09-26T22:36:11.448Z,12.73
2017-09-26T22:38:38.940Z,13.33
2017-09-26T22:41:06.434Z,12.30
2017-09-26T22:43:35.863Z,12.10
2017-09-26T22:46:03.371Z,13.47
2017-09-26T22:48:30.863Z,12.37
2017-09-26T22:50:58.342Z,12.03
2017-09-26T22:53:25.844Z,11.70
2017-09-26T22:55:53.321Z,13.10
2017-09-26T22:58:20.817Z,14.73
2017-09-26T23:00:48.289Z,12.03
2017-09-26T23:03:16.553Z,14.50
2017-09-26T23:05:44.044Z,12.77
2017-09-26T23:08:11.546Z,14.17
2017-09-26T23:10:39.017Z,14.30
2017-09-26T23:13:06.512Z,16.90
2017-09-26T23:15:33.987Z,13.47
2017-09-26T23:18:01.484Z,13.05
2017-09-26T23:20:28.969Z,14.93
2017-09-26T23:22:57.223Z,12.27
2017-09-26T23:25:24.713Z,13.40
2017-09-26T23:27:53.903Z,10.68
2017-09-26T23:30:22.160Z,11.53
2017-09-26T23:32:49.678Z,13.93
2017-09-26T23:35:17.273Z,10.60
2017-09-26T23:37:44.753Z,13.30
2017-09-26T23:40:13.047Z,18.03
2017-09-26T23:42:40.517Z,10.67
2017-09-26T23:45:08.019Z,12.50
2017-09-26T23:47:35.502Z,12.90
2017-09-26T23:50:03.760Z,10.90
2017-09-26T23:52:31.223Z,11.43
2017-09-26T23:54:58.730Z,10.50
2017-09-26T23:57:26.222Z,13.33
2017-09-26T23:59:53.719Z,9.53
